Time;durP1;ratioP1;P1;durP2;ratioP2;P2;SDS_P1;SDS_P2;PMS_P1;PMS_P2;Temp;Humidity;BMP_temperature;BMP_pressure;BME280_temperature;BME280_humidity;BME280_pressure;Samples;Min_cycle;Max_cycle;Signal;HPM_P1;HPM_P2
2021/09/29 00:02:21;;;;;;;;;;;20.00;99.90;;;;;;5088958;28;19909;-70
2021/09/29 00:04:47;;;;;;;;;;;20.10;99.90;;;;;;5089443;28;19931;-71
2021/09/29 00:07:16;;;;;;;;;;;20.00;99.90;;;;;;5091167;28;20378;-70
2021/09/29 00:09:43;;;;;;;;;;;20.00;99.90;;;;;;5089264;28;19908;-71
2021/09/29 00:12:10;;;;;;;;;;;20.10;99.90;;;;;;5088609;28;20007;-71
2021/09/29 00:14:36;;;;;;;;;;;20.00;99.90;;;;;;5089079;28;19909;-71
2021/09/29 00:17:03;;;;;;;;;;;19.90;99.90;;;;;;5089026;28;19956;-70
2021/09/29 00:19:30;;;;;;;;;;;19.90;99.90;;;;;;5088338;28;19912;-68
2021/09/29 00:21:56;;;;;;;;;;;19.90;99.90;;;;;;5088841;28;19962;-71
2021/09/29 00:24:23;;;;;;;;;;;19.90;99.90;;;;;;5087067;28;19912;-71
2021/09/29 00:26:50;;;;;;;;;;;19.90;99.90;;;;;;5088901;28;20336;-71
2021/09/29 00:29:16;;;;;;;;;;;19.80;99.90;;;;;;5088796;28;20381;-71
2021/09/29 00:31:43;;;;;;;;;;;19.80;99.90;;;;;;5088009;28;19913;-71
2021/09/29 00:34:22;;;;;;;;;;;19.70;99.90;;;;;;5087526;28;19923;-71
2021/09/29 00:36:49;;;;;;;;;;;19.60;99.90;;;;;;5088880;28;20095;-72
2021/09/29 00:39:16;;;;;;;;;;;19.50;99.90;;;;;;5088939;28;19915;-72
2021/09/29 00:41:45;;;;;;;;;;;19.50;99.90;;;;;;5087471;28;19919;-71
2021/09/29 00:44:12;;;;;;;;;;;19.50;99.90;;;;;;5088386;28;19908;-69
2021/09/29 00:46:39;;;;;;;;;;;19.50;99.90;;;;;;5088397;28;20355;-72
2021/09/29 00:49:06;;;;;;;;;;;19.50;99.90;;;;;;5088572;28;19908;-71
2021/09/29 00:51:33;;;;;;;;;;;19.50;99.90;;;;;;5087779;28;19912;-70
2021/09/29 00:54:01;;;;;;;;;;;19.50;99.90;;;;;;5088434;28;19913;-71
2021/09/29 00:56:27;;;;;;;;;;;19.30;99.90;;;;;;5088350;28;19969;-71
2021/09/29 00:58:54;;;;;;;;;;;19.20;99.90;;;;;;5075375;28;20341;-71
2021/09/29 01:01:21;;;;;;;;;;;19.20;99.90;;;;;;5074475;28;19915;-69
2021/09/29 01:03:48;;;;;;;;;;;19.10;99.90;;;;;;5074786;28;19908;-68
2021/09/29 01:06:25;;;;;;;;;;;19.10;99.90;;;;;;5075177;28;19916;-70
2021/09/29 01:08:53;;;;;;;;;;;19.00;99.90;;;;;;5074854;28;19995;-70
2021/09/29 01:11:44;;;;;;;;;;;19.00;99.90;;;;;;5074410;28;20359;-70
2021/09/29 01:14:37;;;;;;;;;;;19.00;99.90;;;;;;5064625;28;19909;-71
2021/09/29 01:17:04;;;;;;;;;;;19.00;99.90;;;;;;5066112;28;20270;-69
2021/09/29 01:19:53;;;;;;;;;;;19.00;99.90;;;;;;5074430;28;20256;-70
2021/09/29 01:22:25;;;;;;;;;;;19.10;99.90;;;;;;5074820;28;19966;-71
2021/09/29 01:24:56;;;;;;;;;;;19.10;99.90;;;;;;5075318;28;20259;-71
2021/09/29 01:27:23;;;;;;;;;;;19.20;99.90;;;;;;5074471;28;20293;-70
2021/09/29 01:29:51;;;;;;;;;;;19.10;99.90;;;;;;5056362;28;19919;-70
2021/09/29 01:32:21;;;;;;;;;;;19.10;99.90;;;;;;5054642;28;19915;-69
2021/09/29 01:34:52;;;;;;;;;;;19.10;99.90;;;;;;5074421;28;20041;-69
2021/09/29 01:37:18;;;;;;;;;;;19.10;99.90;;;;;;5074427;28;19961;-70
2021/09/29 01:39:45;;;;;;;;;;;19.20;99.90;;;;;;5073460;28;19912;-68
2021/09/29 01:42:12;;;;;;;;;;;19.30;99.90;;;;;;5073860;28;19916;-68
2021/09/29 01:44:39;;;;;;;;;;;19.30;99.90;;;;;;5074459;28;19947;-69
2021/09/29 01:47:06;;;;;;;;;;;19.20;99.90;;;;;;5073561;28;19920;-68
2021/09/29 01:49:44;;;;;;;;;;;19.20;99.90;;;;;;5106201;28;19935;-69
2021/09/29 01:52:12;;;;;;;;;;;19.40;99.90;;;;;;5073917;28;19912;-69
2021/09/29 01:54:48;;;;;;;;;;;19.40;99.90;;;;;;5073827;28;19951;-69
2021/09/29 01:57:15;;;;;;;;;;;19.40;99.90;;;;;;5073983;28;19961;-68
2021/09/29 01:59:43;;;;;;;;;;;19.60;99.90;;;;;;5073455;28;19931;-69
2021/09/29 02:02:10;;;;;;;;;;;19.50;99.90;;;;;;5073312;28;19919;-69
2021/09/29 02:04:36;;;;;;;;;;;19.60;99.90;;;;;;5073511;28;19909;-68
2021/09/29 02:07:03;;;;;;;;;;;19.50;99.90;;;;;;5073386;28;19916;-69
2021/09/29 02:09:30;;;;;;;;;;;19.50;99.90;;;;;;5072536;28;20416;-69
2021/09/29 02:11:57;;;;;;;;;;;19.50;99.90;;;;;;5072846;28;20283;-68
2021/09/29 02:14:24;;;;;;;;;;;19.50;99.90;;;;;;5073561;28;20416;-68
2021/09/29 02:16:52;;;;;;;;;;;19.50;99.90;;;;;;5073249;28;19909;-69
2021/09/29 02:19:19;;;;;;;;;;;19.50;99.90;;;;;;5073329;28;19931;-68
2021/09/29 02:21:46;;;;;;;;;;;19.50;99.90;;;;;;5072411;28;19965;-68
2021/09/29 02:24:13;;;;;;;;;;;19.50;99.90;;;;;;5073154;28;20452;-71
2021/09/29 02:26:39;;;;;;;;;;;19.40;99.90;;;;;;5073150;28;20019;-72
2021/09/29 02:29:06;;;;;;;;;;;19.40;99.90;;;;;;5073088;28;19908;-70
2021/09/29 02:31:33;;;;;;;;;;;19.40;99.90;;;;;;5072198;28;20359;-70
2021/09/29 02:34:00;;;;;;;;;;;19.30;99.90;;;;;;5073028;28;19920;-72
2021/09/29 02:36:27;;;;;;;;;;;19.20;99.90;;;;;;5072819;28;19999;-71
2021/09/29 02:38:53;;;;;;;;;;;19.20;99.90;;;;;;5072972;28;19992;-73
2021/09/29 02:41:22;;;;;;;;;;;19.20;99.90;;;;;;5071899;28;19967;-71
2021/09/29 02:43:48;;;;;;;;;;;19.10;99.90;;;;;;5072508;28;19909;-70
2021/09/29 02:46:15;;;;;;;;;;;19.00;99.90;;;;;;5072430;28;19982;-72
2021/09/29 02:48:41;;;;;;;;;;;18.90;99.90;;;;;;5072851;28;19909;-73
2021/09/29 02:51:08;;;;;;;;;;;18.90;99.90;;;;;;5072602;28;19919;-72
2021/09/29 02:53:35;;;;;;;;;;;18.90;99.90;;;;;;5072358;28;19909;-72
2021/09/29 02:56:03;;;;;;;;;;;18.80;99.90;;;;;;5072907;28;20400;-71
2021/09/29 02:58:29;;;;;;;;;;;18.80;99.90;;;;;;5072912;28;19966;-72
2021/09/29 03:00:58;;;;;;;;;;;18.70;99.90;;;;;;5072496;28;20286;-72
2021/09/29 03:03:28;;;;;;;;;;;18.50;99.90;;;;;;5072046;28;19969;-73
2021/09/29 03:05:55;;;;;;;;;;;18.50;99.90;;;;;;5072435;28;19964;-72
2021/09/29 03:08:21;;;;;;;;;;;18.40;99.90;;;;;;5072341;28;19912;-73
2021/09/29 03:10:48;;;;;;;;;;;18.30;99.90;;;;;;5071842;28;20336;-72
2021/09/29 03:13:15;;;;;;;;;;;18.30;99.90;;;;;;5071959;28;19915;-72
2021/09/29 03:15:42;;;;;;;;;;;18.30;99.90;;;;;;5071988;28;19912;-73
2021/09/29 03:18:09;;;;;;;;;;;18.30;99.90;;;;;;5070910;28;20359;-73
2021/09/29 03:20:36;;;;;;;;;;;18.20;99.90;;;;;;5072018;28;19909;-72
2021/09/29 03:23:03;;;;;;;;;;;18.00;99.90;;;;;;5072239;28;20094;-72
2021/09/29 03:25:29;;;;;;;;;;;18.00;99.90;;;;;;5072246;28;19931;-70
2021/09/29 03:27:56;;;;;;;;;;;17.90;99.90;;;;;;5072213;28;19935;-71
2021/09/29 03:30:23;;;;;;;;;;;17.80;99.90;;;;;;5072060;28;19916;-72
2021/09/29 03:32:49;;;;;;;;;;;17.80;99.90;;;;;;5071838;28;19913;-70
2021/09/29 03:35:18;;;;;;;;;;;17.70;99.90;;;;;;5072080;28;19909;-71
2021/09/29 03:37:44;;;;;;;;;;;17.70;99.90;;;;;;5071983;28;19962;-71
2021/09/29 03:40:13;;;;;;;;;;;17.60;99.90;;;;;;5072033;28;19970;-71
2021/09/29 03:42:40;;;;;;;;;;;17.50;99.90;;;;;;5071711;28;19913;-71
2021/09/29 03:45:09;;;;;;;;;;;17.50;99.90;;;;;;5072008;28;19909;-71
2021/09/29 03:47:36;;;;;;;;;;;17.30;99.90;;;;;;5071917;28;19966;-71
2021/09/29 03:50:03;;;;;;;;;;;17.30;99.90;;;;;;5072007;28;19974;-70
2021/09/29 03:52:30;;;;;;;;;;;17.30;99.90;;;;;;5071752;28;19913;-71
2021/09/29 03:54:56;;;;;;;;;;;17.30;99.90;;;;;;5071993;28;19954;-71
2021/09/29 03:57:23;;;;;;;;;;;17.20;99.90;;;;;;5071920;28;19999;-72
2021/09/29 03:59:50;;;;;;;;;;;17.20;99.90;;;;;;5071625;28;19920;-72
2021/09/29 04:02:17;;;;;;;;;;;17.20;99.90;;;;;;5071883;28;19909;-71
2021/09/29 04:04:43;;;;;;;;;;;17.10;99.90;;;;;;5070633;28;19913;-71
2021/09/29 04:07:10;;;;;;;;;;;17.20;99.90;;;;;;5071848;28;20029;-71
2021/09/29 04:09:37;;;;;;;;;;;17.20;99.90;;;;;;5071335;28;19962;-71
2021/09/29 04:12:04;;;;;;;;;;;17.10;99.90;;;;;;5070640;28;19913;-72
2021/09/29 04:14:30;;;;;;;;;;;17.10;99.90;;;;;;5071737;28;19908;-71
2021/09/29 04:16:57;;;;;;;;;;;17.00;99.90;;;;;;5071602;28;19908;-72
2021/09/29 04:19:24;;;;;;;;;;;17.10;99.90;;;;;;5071558;28;20705;-72
2021/09/29 04:21:51;;;;;;;;;;;17.10;99.90;;;;;;5071127;28;20252;-71
2021/09/29 04:24:20;;;;;;;;;;;17.10;99.90;;;;;;5071717;28;19981;-72
2021/09/29 04:26:47;;;;;;;;;;;17.10;99.90;;;;;;5071380;28;20425;-70
2021/09/29 04:29:13;;;;;;;;;;;17.10;99.90;;;;;;5071613;28;19916;-72
2021/09/29 04:31:40;;;;;;;;;;;17.10;99.90;;;;;;5071112;28;19919;-71
2021/09/29 04:34:07;;;;;;;;;;;17.00;99.90;;;;;;5075164;28;19912;-72
2021/09/29 04:36:33;;;;;;;;;;;16.90;99.90;;;;;;5075709;28;20344;-72
2021/09/29 04:39:00;;;;;;;;;;;17.00;99.90;;;;;;5075772;28;19912;-73
2021/09/29 04:41:27;;;;;;;;;;;16.90;99.90;;;;;;5085160;28;19970;-73
2021/09/29 04:43:53;;;;;;;;;;;17.00;99.90;;;;;;5085681;28;19908;-72
2021/09/29 04:46:20;;;;;;;;;;;17.00;99.90;;;;;;5087032;28;19925;-72
2021/09/29 04:48:47;;;;;;;;;;;17.00;99.90;;;;;;5074357;28;19944;-73
2021/09/29 04:51:14;;;;;;;;;;;17.00;99.90;;;;;;5077819;28;19916;-73
2021/09/29 04:53:41;;;;;;;;;;;17.00;99.90;;;;;;5078133;28;19919;-73
2021/09/29 04:56:08;;;;;;;;;;;16.90;99.90;;;;;;5075138;28;19918;-70
2021/09/29 04:58:36;;;;;;;;;;;17.00;99.90;;;;;;5073659;28;19967;-72
2021/09/29 05:01:03;;;;;;;;;;;17.00;99.90;;;;;;5074872;28;19909;-72
2021/09/29 05:03:31;;;;;;;;;;;17.00;99.90;;;;;;5074469;28;20017;-70
2021/09/29 05:05:58;;;;;;;;;;;17.00;99.90;;;;;;5074769;28;19916;-71
2021/09/29 05:08:25;;;;;;;;;;;17.00;99.90;;;;;;5074601;28;19914;-71
2021/09/29 05:11:15;;;;;;;;;;;17.00;99.90;;;;;;5074474;28;19970;-72
2021/09/29 05:13:41;;;;;;;;;;;17.00;99.90;;;;;;5074144;28;19913;-71
2021/09/29 05:16:08;;;;;;;;;;;17.00;99.90;;;;;;5074591;28;20106;-71
2021/09/29 05:18:34;;;;;;;;;;;17.10;99.90;;;;;;5074525;28;20355;-72
2021/09/29 05:21:01;;;;;;;;;;;17.10;99.90;;;;;;5074271;28;19909;-72
2021/09/29 05:23:28;;;;;;;;;;;17.10;99.90;;;;;;5074534;28;20267;-71
2021/09/29 05:25:55;;;;;;;;;;;17.00;99.90;;;;;;5073388;28;19916;-71
2021/09/29 05:28:29;;;;;;;;;;;17.10;99.90;;;;;;5072657;28;19909;-71
2021/09/29 05:30:56;;;;;;;;;;;17.10;99.90;;;;;;5072954;28;19957;-71
2021/09/29 05:33:22;;;;;;;;;;;17.10;99.90;;;;;;5073995;28;20390;-71
2021/09/29 05:35:49;;;;;;;;;;;17.10;99.90;;;;;;5073826;28;20290;-71
2021/09/29 05:38:16;;;;;;;;;;;17.10;99.90;;;;;;5074566;28;19908;-72
2021/09/29 05:40:43;;;;;;;;;;;17.00;99.90;;;;;;5073866;28;19909;-71
2021/09/29 05:43:10;;;;;;;;;;;17.00;99.90;;;;;;5073957;28;19952;-71
2021/09/29 05:45:36;;;;;;;;;;;17.00;99.90;;;;;;5073545;28;19923;-71
2021/09/29 05:48:03;;;;;;;;;;;17.00;99.90;;;;;;5074103;28;20263;-70
2021/09/29 05:50:33;;;;;;;;;;;17.10;99.90;;;;;;5074171;28;19962;-71
2021/09/29 05:53:00;;;;;;;;;;;17.00;99.90;;;;;;5074868;28;20003;-71
2021/09/29 05:55:27;;;;;;;;;;;17.00;99.90;;;;;;5075279;28;19966;-72
2021/09/29 05:57:53;;;;;;;;;;;17.00;99.90;;;;;;5074630;28;19935;-73
2021/09/29 06:00:20;;;;;;;;;;;17.00;99.90;;;;;;5073124;28;19919;-73
2021/09/29 06:02:47;;;;;;;;;;;17.00;99.90;;;;;;5074882;28;19919;-72
2021/09/29 06:05:13;;;;;;;;;;;17.00;99.90;;;;;;5075452;28;19908;-74
2021/09/29 06:07:40;;;;;;;;;;;17.00;99.90;;;;;;5073761;28;19927;-71
2021/09/29 06:10:07;;;;;;;;;;;17.00;99.90;;;;;;5073664;28;19987;-72
2021/09/29 06:12:34;;;;;;;;;;;17.10;99.90;;;;;;5073365;28;19916;-70
2021/09/29 06:15:00;;;;;;;;;;;17.10;99.90;;;;;;5073708;28;20359;-72
2021/09/29 06:17:37;;;;;;;;;;;17.10;99.90;;;;;;5073543;28;19969;-72
2021/09/29 06:20:04;;;;;;;;;;;17.10;99.90;;;;;;5074037;28;19963;-71
2021/09/29 06:22:31;;;;;;;;;;;17.10;99.90;;;;;;5073270;28;20046;-72
2021/09/29 06:24:58;;;;;;;;;;;17.10;99.90;;;;;;5076121;28;19909;-73
2021/09/29 06:27:24;;;;;;;;;;;17.10;99.90;;;;;;5074302;28;19920;-73
2021/09/29 06:29:51;;;;;;;;;;;17.00;99.90;;;;;;5072901;28;19984;-72
2021/09/29 06:32:17;;;;;;;;;;;17.00;99.90;;;;;;5072741;28;19992;-72
2021/09/29 06:34:44;;;;;;;;;;;17.00;99.90;;;;;;5072988;28;19915;-72
2021/09/29 06:37:11;;;;;;;;;;;16.90;99.90;;;;;;5072858;28;20277;-72
2021/09/29 06:39:41;;;;;;;;;;;17.00;99.90;;;;;;5072659;28;20282;-71
2021/09/29 06:42:07;;;;;;;;;;;17.00;99.90;;;;;;5072224;28;20355;-70
2021/09/29 06:44:34;;;;;;;;;;;17.00;99.90;;;;;;5073069;28;20004;-70
2021/09/29 06:47:01;;;;;;;;;;;17.00;99.90;;;;;;5072683;28;19920;-71
2021/09/29 06:49:28;;;;;;;;;;;17.00;99.90;;;;;;5072509;28;19920;-72
2021/09/29 06:51:54;;;;;;;;;;;17.00;99.90;;;;;;5070240;28;20419;-73
2021/09/29 06:54:22;;;;;;;;;;;17.00;99.90;;;;;;5069387;28;20337;-72
2021/09/29 06:56:48;;;;;;;;;;;17.00;99.90;;;;;;5070436;28;20274;-72
2021/09/29 06:59:15;;;;;;;;;;;17.00;99.90;;;;;;5068362;28;19951;-73
2021/09/29 07:01:42;;;;;;;;;;;17.00;99.90;;;;;;5070113;28;19913;-72
2021/09/29 07:04:08;;;;;;;;;;;17.00;99.90;;;;;;5070050;28;19919;-72
2021/09/29 07:06:35;;;;;;;;;;;17.00;99.90;;;;;;5070447;28;19921;-72
2021/09/29 07:09:02;;;;;;;;;;;17.00;99.90;;;;;;5070185;28;19908;-71
2021/09/29 07:11:28;;;;;;;;;;;17.00;99.90;;;;;;5069986;28;19915;-71
2021/09/29 07:13:57;;;;;;;;;;;17.00;99.90;;;;;;5070096;28;19916;-71
2021/09/29 07:16:25;;;;;;;;;;;17.00;99.90;;;;;;5070946;28;19959;-72
2021/09/29 07:19:01;;;;;;;;;;;17.00;99.90;;;;;;5070374;28;20128;-73
2021/09/29 07:21:28;;;;;;;;;;;17.00;99.90;;;;;;5069940;28;19955;-70
2021/09/29 07:23:54;;;;;;;;;;;17.00;99.90;;;;;;5070232;28;19908;-71
2021/09/29 07:26:21;;;;;;;;;;;17.00;99.90;;;;;;5071517;28;19927;-73
2021/09/29 07:28:48;;;;;;;;;;;17.00;99.90;;;;;;5071663;28;19920;-72
2021/09/29 07:31:16;;;;;;;;;;;17.00;99.90;;;;;;5068031;28;19920;-71
2021/09/29 07:33:42;;;;;;;;;;;17.00;99.90;;;;;;5069830;28;20351;-72
2021/09/29 07:36:09;;;;;;;;;;;17.00;99.90;;;;;;5069993;28;19912;-71
2021/09/29 07:38:36;;;;;;;;;;;17.00;99.90;;;;;;5070075;28;20003;-73
2021/09/29 07:41:03;;;;;;;;;;;16.90;99.90;;;;;;5069619;28;19947;-71
2021/09/29 07:43:31;;;;;;;;;;;16.90;99.90;;;;;;5069868;28;19948;-72
2021/09/29 07:45:58;;;;;;;;;;;17.00;99.90;;;;;;5069434;28;19921;-72
2021/09/29 07:48:25;;;;;;;;;;;17.00;99.90;;;;;;5070115;28;20354;-73
2021/09/29 07:50:52;;;;;;;;;;;17.00;99.90;;;;;;5070280;28;19912;-72
2021/09/29 07:53:21;;;;;;;;;;;17.00;99.90;;;;;;5069604;28;19920;-72
2021/09/29 07:55:48;;;;;;;;;;;16.90;99.90;;;;;;5069941;28;20340;-73
2021/09/29 07:58:15;;;;;;;;;;;16.90;99.90;;;;;;5068778;28;20547;-72
2021/09/29 08:00:41;;;;;;;;;;;17.00;99.90;;;;;;5069794;28;19908;-73
2021/09/29 08:03:08;;;;;;;;;;;17.00;99.90;;;;;;5069625;28;19909;-73
2021/09/29 08:05:35;;;;;;;;;;;17.00;99.90;;;;;;5069586;28;19916;-73
2021/09/29 08:08:01;;;;;;;;;;;17.00;99.90;;;;;;5071350;28;19913;-73
2021/09/29 08:10:28;;;;;;;;;;;17.00;99.90;;;;;;5073972;28;19908;-73
2021/09/29 08:12:55;;;;;;;;;;;17.00;99.90;;;;;;5073562;28;19912;-73
2021/09/29 08:15:22;;;;;;;;;;;17.00;99.90;;;;;;5073873;28;20389;-72
2021/09/29 08:17:50;;;;;;;;;;;17.00;99.90;;;;;;5073925;28;19917;-74
2021/09/29 08:20:19;;;;;;;;;;;17.00;99.90;;;;;;5073723;28;20008;-73
2021/09/29 08:22:51;;;;;;;;;;;17.00;99.90;;;;;;5072962;28;19959;-73
2021/09/29 08:25:44;;;;;;;;;;;17.00;99.90;;;;;;5073961;28;20018;-73
2021/09/29 08:30:56;;;;;;;;;;;17.00;99.90;;;;;;5073045;28;19912;-73
2021/09/29 08:33:46;;;;;;;;;;;17.00;99.90;;;;;;5071888;28;20405;-73
2021/09/29 08:36:23;;;;;;;;;;;17.00;99.90;;;;;;5071690;28;20378;-72
2021/09/29 08:38:56;;;;;;;;;;;17.00;99.90;;;;;;5073809;28;20374;-73
2021/09/29 08:43:58;;;;;;;;;;;17.00;99.90;;;;;;5072985;28;19916;-73
2021/09/29 08:46:48;;;;;;;;;;;17.00;99.90;;;;;;5072897;28;20391;-72
2021/09/29 08:56:56;;;;;;;;;;;17.00;99.90;;;;;;5073050;28;19915;-73
2021/09/29 09:16:18;;;;;;;;;;;17.00;99.90;;;;;;5075308;28;19915;-72
2021/09/29 09:18:51;;;;;;;;;;;17.10;99.90;;;;;;5074321;28;19916;-72
2021/09/29 09:21:19;;;;;;;;;;;17.00;99.90;;;;;;5074712;28;20367;-70
2021/09/29 09:23:46;;;;;;;;;;;17.10;99.90;;;;;;5074097;28;19931;-73
2021/09/29 09:26:23;;;;;;;;;;;17.10;99.90;;;;;;5073239;28;19916;-72
2021/09/29 09:28:51;;;;;;;;;;;17.10;99.90;;;;;;5074433;28;19912;-72
2021/09/29 09:31:20;;;;;;;;;;;17.10;99.90;;;;;;5078267;28;19912;-71
2021/09/29 09:33:54;;;;;;;;;;;17.10;99.90;;;;;;5075106;28;20350;-73
2021/09/29 09:36:41;;;;;;;;;;;17.10;99.90;;;;;;5073068;28;19909;-72
2021/09/29 09:39:16;;;;;;;;;;;17.10;99.90;;;;;;5074453;28;19915;-72
2021/09/29 09:41:51;;;;;;;;;;;17.10;99.90;;;;;;5073456;28;19919;-70
2021/09/29 09:44:34;;;;;;;;;;;17.10;99.90;;;;;;5074073;28;19908;-72
2021/09/29 09:47:03;;;;;;;;;;;17.10;99.90;;;;;;5073975;28;19920;-69
2021/09/29 09:49:30;;;;;;;;;;;17.10;99.90;;;;;;5074038;28;19978;-71
2021/09/29 09:52:00;;;;;;;;;;;17.10;99.90;;;;;;5073665;28;19916;-69
2021/09/29 09:54:37;;;;;;;;;;;17.00;99.90;;;;;;5073857;28;19920;-70
2021/09/29 09:57:08;;;;;;;;;;;17.00;99.90;;;;;;5074056;28;19908;-70
2021/09/29 09:59:36;;;;;;;;;;;17.00;99.90;;;;;;5072727;28;19919;-70
2021/09/29 10:02:03;;;;;;;;;;;17.00;99.90;;;;;;5073539;28;20212;-71
2021/09/29 10:04:29;;;;;;;;;;;17.00;99.90;;;;;;5073784;28;19969;-70
2021/09/29 10:06:56;;;;;;;;;;;17.10;99.90;;;;;;5073756;28;20382;-71
2021/09/29 10:09:29;;;;;;;;;;;17.10;99.90;;;;;;5073843;28;19908;-72
2021/09/29 10:12:19;;;;;;;;;;;17.10;99.90;;;;;;5072852;28;20330;-70
2021/09/29 10:28:40;;;;;;;;;;;17.20;99.90;;;;;;5073324;28;19916;-73
2021/09/29 10:33:46;;;;;;;;;;;17.20;99.90;;;;;;5066545;28;19913;-72
2021/09/29 10:45:12;;;;;;;;;;;17.10;99.90;;;;;;5030807;28;19909;-71
2021/09/29 11:12:20;;;;;;;;;;;17.10;99.90;;;;;;5051904;28;20257;-71
2021/09/29 11:28:59;;;;;;;;;;;16.90;99.90;;;;;;5052094;28;20054;-71
2021/09/29 11:31:40;;;;;;;;;;;16.90;99.90;;;;;;5052165;28;19908;-71
2021/09/29 11:34:10;;;;;;;;;;;16.90;99.90;;;;;;5050768;28;20372;-71
2021/09/29 12:12:27;;;;;;;;;;;16.90;99.90;;;;;;5050969;28;19908;-70
2021/09/29 12:14:55;;;;;;;;;;;16.80;99.90;;;;;;5052102;28;20022;-72
2021/09/29 12:17:22;;;;;;;;;;;16.70;99.90;;;;;;5051933;28;19909;-71
2021/09/29 12:20:31;;;;;;;;;;;16.70;99.90;;;;;;5051596;28;20296;-71
2021/09/29 12:22:41;;;;;;;;;;;16.70;99.90;;;;;;5053417;28;19912;-70
2021/09/29 12:25:11;;;;;;;;;;;16.70;99.90;;;;;;5051812;28;19908;-71
2021/09/29 12:27:41;;;;;;;;;;;16.70;99.90;;;;;;5052185;28;19935;-71
2021/09/29 12:30:21;;;;;;;;;;;16.70;99.90;;;;;;5061086;28;19909;-71
2021/09/29 12:33:01;;;;;;;;;;;16.70;99.90;;;;;;5059787;28;19909;-71
2021/09/29 12:36:00;;;;;;;;;;;16.70;99.90;;;;;;5049935;28;19909;-70
2021/09/29 12:38:21;;;;;;;;;;;16.70;99.90;;;;;;5049468;28;20394;-71
2021/09/29 12:40:51;;;;;;;;;;;16.70;99.90;;;;;;5050810;28;19908;-71
2021/09/29 12:43:19;;;;;;;;;;;16.80;99.90;;;;;;5049608;28;20041;-71
2021/09/29 12:45:48;;;;;;;;;;;16.80;99.90;;;;;;5049179;28;19988;-71
2021/09/29 12:48:17;;;;;;;;;;;16.80;99.90;;;;;;5049695;28;19962;-72
2021/09/29 12:50:56;;;;;;;;;;;16.80;99.90;;;;;;5050908;28;19948;-72
2021/09/29 12:56:04;;;;;;;;;;;16.80;99.90;;;;;;5054205;28;20027;-73
2021/09/29 12:59:04;;;;;;;;;;;16.90;99.90;;;;;;5054924;28;20413;-74
2021/09/29 13:01:31;;;;;;;;;;;16.90;99.90;;;;;;5054905;28;19955;-70
2021/09/29 13:04:01;;;;;;;;;;;16.80;99.90;;;;;;5055309;28;20280;-72
2021/09/29 13:06:42;;;;;;;;;;;16.80;99.90;;;;;;5055400;28;19964;-73
2021/09/29 13:09:09;;;;;;;;;;;16.80;99.90;;;;;;5055372;28;20283;-71
2021/09/29 13:11:36;;;;;;;;;;;16.80;99.90;;;;;;5069772;28;19908;-72
2021/09/29 13:14:02;;;;;;;;;;;16.70;99.90;;;;;;5054858;28;19913;-72
2021/09/29 13:16:30;;;;;;;;;;;16.70;99.90;;;;;;5055056;28;20002;-72
2021/09/29 13:19:00;;;;;;;;;;;16.70;99.90;;;;;;5054803;28;19969;-70
2021/09/29 13:21:36;;;;;;;;;;;16.80;99.90;;;;;;5054868;28;19912;-72
2021/09/29 13:24:17;;;;;;;;;;;16.80;99.90;;;;;;5054954;28;19909;-72
2021/09/29 13:27:01;;;;;;;;;;;16.80;99.90;;;;;;5054274;28;20363;-72
2021/09/29 13:36:33;;;;;;;;;;;16.60;99.90;;;;;;5054636;28;20016;-72
2021/09/29 13:37:59;;;;;;;;;;;16.50;99.90;;;;;;5054557;28;20364;-72
2021/09/29 13:40:26;;;;;;;;;;;16.50;99.90;;;;;;5054490;28;19995;-71
2021/09/29 13:42:52;;;;;;;;;;;16.40;99.90;;;;;;5054403;28;19913;-71
2021/09/29 13:45:19;;;;;;;;;;;16.40;99.90;;;;;;5054427;28;19919;-71
2021/09/29 13:47:46;;;;;;;;;;;16.40;99.90;;;;;;5054026;28;20016;-70
2021/09/29 13:50:14;;;;;;;;;;;16.30;99.90;;;;;;5054440;28;19909;-71
2021/09/29 13:52:41;;;;;;;;;;;16.30;99.90;;;;;;5054547;28;19913;-70
2021/09/29 13:55:13;;;;;;;;;;;16.20;99.90;;;;;;5054186;28;19909;-71
2021/09/29 13:57:48;;;;;;;;;;;16.20;99.90;;;;;;5053964;28;19999;-71
2021/09/29 14:00:24;;;;;;;;;;;16.10;99.90;;;;;;5054496;28;20368;-71
2021/09/29 14:30:26;;;;;;;;;;;15.70;99.90;;;;;;5054231;28;19963;-72
2021/09/29 14:35:22;;;;;;;;;;;15.70;99.90;;;;;;5053679;28;19913;-71
2021/09/29 14:37:49;;;;;;;;;;;15.70;99.90;;;;;;5053605;28;19908;-72
2021/09/29 14:40:18;;;;;;;;;;;15.60;99.90;;;;;;5053548;28;19909;-69
2021/09/29 14:42:45;;;;;;;;;;;15.70;99.90;;;;;;5053416;28;19915;-70
2021/09/29 14:45:19;;;;;;;;;;;15.70;99.90;;;;;;5053531;28;20260;-72
2021/09/29 14:47:49;;;;;;;;;;;15.60;99.90;;;;;;5052839;28;19920;-73
2021/09/29 14:50:16;;;;;;;;;;;15.60;99.90;;;;;;5053273;28;20403;-71
2021/09/29 14:52:42;;;;;;;;;;;15.60;99.90;;;;;;5053241;28;19909;-70
2021/09/29 14:55:09;;;;;;;;;;;15.60;99.90;;;;;;5053121;28;20011;-72
2021/09/29 14:57:36;;;;;;;;;;;15.60;99.90;;;;;;5052863;28;19909;-72
2021/09/29 15:00:03;;;;;;;;;;;15.60;99.90;;;;;;5053162;28;20000;-72
2021/09/29 15:02:30;;;;;;;;;;;15.60;99.90;;;;;;5053054;28;19916;-72
2021/09/29 15:04:57;;;;;;;;;;;15.60;99.90;;;;;;5085252;28;20287;-71
2021/09/29 15:07:24;;;;;;;;;;;15.60;99.90;;;;;;5053003;28;19917;-73
2021/09/29 15:09:50;;;;;;;;;;;15.50;99.90;;;;;;5052734;28;20283;-73
2021/09/29 15:12:17;;;;;;;;;;;15.60;99.90;;;;;;5053042;28;19915;-72
2021/09/29 15:14:51;;;;;;;;;;;15.60;99.90;;;;;;5085045;28;20422;-72
2021/09/29 15:17:31;;;;;;;;;;;15.60;99.90;;;;;;5052650;28;19951;-72
2021/09/29 15:20:12;;;;;;;;;;;15.50;99.90;;;;;;5053038;28;19908;-72
2021/09/29 15:25:47;;;;;;;;;;;15.60;99.90;;;;;;5052648;28;19912;-69
2021/09/29 15:31:13;;;;;;;;;;;15.60;99.90;;;;;;5052826;28;20302;-71
2021/09/29 15:47:27;;;;;;;;;;;15.60;99.90;;;;;;5052303;28;19942;-70
2021/09/29 15:55:26;;;;;;;;;;;15.50;99.90;;;;;;5057709;28;19913;-70
2021/09/29 16:03:50;;;;;;;;;;;15.50;99.90;;;;;;5052375;28;19923;-70
2021/09/29 16:06:31;;;;;;;;;;;15.60;99.90;;;;;;5052171;28;19920;-70
2021/09/29 16:09:21;;;;;;;;;;;15.60;99.90;;;;;;5052305;28;19928;-69
2021/09/29 16:12:12;;;;;;;;;;;15.60;99.90;;;;;;5051721;28;19908;-69
2021/09/29 16:30:28;;;;;;;;;;;15.80;99.90;;;;;;5055689;28;19916;-73
2021/09/29 16:33:10;;;;;;;;;;;15.80;99.90;;;;;;5055999;28;20351;-72
2021/09/29 16:35:58;;;;;;;;;;;15.80;99.90;;;;;;5055709;28;20134;-71
2021/09/29 16:38:23;;;;;;;;;;;15.80;99.90;;;;;;5055522;28;20348;-70
2021/09/29 16:40:50;;;;;;;;;;;15.90;99.90;;;;;;5055502;28;19913;-71
2021/09/29 16:43:18;;;;;;;;;;;15.90;99.90;;;;;;5055770;28;20027;-72
2021/09/29 16:45:46;;;;;;;;;;;15.90;99.90;;;;;;5055322;28;19955;-71
2021/09/29 16:48:17;;;;;;;;;;;15.90;99.90;;;;;;5055922;28;20361;-72
2021/09/29 16:51:11;;;;;;;;;;;15.90;99.90;;;;;;5086991;28;19917;-72
2021/09/29 16:53:33;;;;;;;;;;;16.00;99.90;;;;;;5056011;28;19913;-72
2021/09/29 16:56:01;;;;;;;;;;;16.00;99.90;;;;;;5055488;28;19945;-72
2021/09/29 16:58:33;;;;;;;;;;;15.90;99.90;;;;;;5055445;28;20322;-73
2021/09/29 17:01:08;;;;;;;;;;;15.90;99.90;;;;;;5055441;28;19916;-72
2021/09/29 17:03:35;;;;;;;;;;;15.90;99.90;;;;;;5054965;28;19915;-71
2021/09/29 17:06:02;;;;;;;;;;;16.00;99.90;;;;;;5055336;28;19909;-71
2021/09/29 17:08:29;;;;;;;;;;;15.90;99.90;;;;;;5055207;28;19913;-74
2021/09/29 17:10:56;;;;;;;;;;;15.90;99.90;;;;;;5055113;28;19961;-73
2021/09/29 17:13:25;;;;;;;;;;;16.00;99.90;;;;;;5054996;28;20438;-73
2021/09/29 17:15:57;;;;;;;;;;;16.00;99.90;;;;;;5054964;28;19956;-73
2021/09/29 17:18:29;;;;;;;;;;;16.00;99.90;;;;;;5055025;28;19949;-73
2021/09/29 17:20:56;;;;;;;;;;;15.90;99.90;;;;;;5055081;28;20407;-73
2021/09/29 17:23:23;;;;;;;;;;;16.00;99.90;;;;;;5054973;28;20288;-72
2021/09/29 17:25:50;;;;;;;;;;;16.00;99.90;;;;;;5054938;28;20079;-74
2021/09/29 17:28:19;;;;;;;;;;;16.00;99.90;;;;;;5056645;28;20003;-75
2021/09/29 17:30:51;;;;;;;;;;;16.00;99.90;;;;;;5059828;28;19951;-74
2021/09/29 17:52:17;;;;;;;;;;;16.00;99.90;;;;;;5054837;28;19915;-73
2021/09/29 17:54:44;;;;;;;;;;;16.00;99.90;;;;;;5054482;28;19940;-74
2021/09/29 17:57:10;;;;;;;;;;;16.00;99.90;;;;;;5054565;28;20016;-71
2021/09/29 17:59:40;;;;;;;;;;;16.00;99.90;;;;;;5054157;28;19931;-74
2021/09/29 18:02:15;;;;;;;;;;;16.00;99.90;;;;;;5054314;28;20286;-73
2021/09/29 18:04:45;;;;;;;;;;;16.10;99.90;;;;;;5054261;28;19941;-73
2021/09/29 18:07:57;;;;;;;;;;;16.10;99.90;;;;;;5054170;28;20362;-73
2021/09/29 18:09:58;;;;;;;;;;;16.10;99.90;;;;;;5053536;28;20282;-74
2021/09/29 18:12:25;;;;;;;;;;;16.10;99.90;;;;;;5054093;28;19955;-74
2021/09/29 18:14:51;;;;;;;;;;;16.10;99.90;;;;;;5053965;28;19909;-72
2021/09/29 18:17:18;;;;;;;;;;;16.10;99.90;;;;;;5053994;28;19908;-73
2021/09/29 18:19:45;;;;;;;;;;;16.10;99.90;;;;;;5053625;28;19909;-74
2021/09/29 18:22:12;;;;;;;;;;;16.10;99.90;;;;;;5053907;28;19919;-73
2021/09/29 18:24:38;;;;;;;;;;;16.10;99.90;;;;;;5053695;28;19913;-74